createdAt,value
2018-12-14T00:01:30.713Z,14.17
2018-12-14T00:04:13.485Z,14.37
2018-12-14T00:06:56.172Z,11.60
2018-12-14T00:09:38.936Z,12.17
2018-12-14T00:12:21.644Z,13.80
2018-12-14T00:15:05.046Z,12.87
2018-12-14T00:17:47.969Z,13.60
2018-12-14T00:20:30.609Z,12.30
2018-12-14T00:23:13.845Z,12.70
2018-12-14T00:25:56.240Z,13.30
2018-12-14T00:28:39.877Z,12.87
2018-12-14T00:31:22.697Z,12.87
2018-12-14T00:34:05.461Z,11.20
2018-12-14T00:36:48.101Z,11.90
2018-12-14T00:39:31.325Z,11.67
2018-12-14T00:42:13.666Z,11.80
2018-12-14T00:44:56.289Z,12.17
2018-12-14T00:47:39.122Z,10.90
2018-12-14T00:50:21.843Z,9.80
2018-12-14T00:53:04.617Z,8.87
2018-12-14T00:55:47.188Z,8.00
2018-12-14T00:58:29.810Z,6.90
2018-12-14T01:01:12.726Z,6.70
2018-12-14T01:03:55.236Z,5.97
2018-12-14T01:06:37.923Z,4.87
2018-12-14T01:09:20.680Z,4.83
2018-12-14T01:12:03.298Z,5.40
2018-12-14T01:14:46.113Z,4.60
2018-12-14T01:17:28.622Z,4.27
2018-12-14T01:20:11.363Z,4.30
2018-12-14T01:22:54.168Z,3.90
2018-12-14T01:25:36.784Z,3.93
2018-12-14T01:28:19.597Z,4.33
2018-12-14T01:31:02.209Z,3.37
2018-12-14T01:33:45.074Z,2.90
2018-12-14T01:36:27.755Z,4.07
2018-12-14T01:39:10.550Z,4.07
2018-12-14T01:41:53.198Z,4.10
2018-12-14T01:44:35.820Z,2.80
2018-12-14T01:47:18.553Z,3.90
2018-12-14T01:50:01.105Z,3.93
2018-12-14T01:52:43.881Z,3.30
2018-12-14T01:55:26.516Z,3.33
2018-12-14T01:58:09.046Z,3.03
2018-12-14T02:00:51.643Z,2.57
2018-12-14T02:03:34.260Z,2.40
2018-12-14T02:06:17.714Z,1.60
2018-12-14T02:09:00.824Z,2.20
2018-12-14T02:12:11.402Z,2.07
2018-12-14T02:14:53.987Z,2.00
2018-12-14T02:17:36.537Z,1.57
2018-12-14T02:20:19.176Z,1.90
2018-12-14T02:23:02.095Z,1.50
2018-12-14T02:25:45.338Z,1.50
2018-12-14T02:28:28.633Z,2.10
2018-12-14T02:31:11.309Z,1.33
2018-12-14T02:33:53.958Z,1.40
2018-12-14T02:36:36.785Z,1.30
2018-12-14T02:39:20.068Z,1.30
2018-12-14T02:42:03.726Z,1.50
2018-12-14T02:44:47.671Z,1.37
2018-12-14T02:47:30.465Z,1.80
2018-12-14T02:50:13.395Z,2.20
2018-12-14T02:52:56.228Z,1.50
2018-12-14T02:55:40.238Z,1.60
2018-12-14T02:58:22.462Z,1.90
2018-12-14T03:01:05.142Z,1.57
2018-12-14T03:03:47.949Z,1.57
2018-12-14T03:06:30.752Z,1.40
2018-12-14T03:09:13.315Z,1.17
2018-12-14T03:11:56.233Z,0.87
2018-12-14T03:14:39.029Z,1.10
2018-12-14T03:17:21.725Z,0.70
2018-12-14T03:20:04.322Z,0.80
2018-12-14T03:22:48.029Z,0.80
2018-12-14T03:25:30.660Z,0.70
2018-12-14T03:28:13.103Z,0.70
2018-12-14T03:30:55.955Z,0.70
2018-12-14T03:33:38.895Z,0.80
2018-12-14T03:36:21.742Z,0.70
2018-12-14T03:39:05.585Z,0.63
2018-12-14T03:41:48.061Z,0.80
2018-12-14T03:44:30.577Z,0.70
2018-12-14T03:47:13.275Z,0.60
2018-12-14T03:49:55.847Z,1.33
2018-12-14T03:52:39.001Z,2.17
2018-12-14T03:55:21.314Z,2.33
2018-12-14T03:58:03.958Z,2.00
2018-12-14T04:00:47.046Z,2.97
2018-12-14T04:03:29.387Z,2.60
2018-12-14T04:06:12.255Z,2.60
2018-12-14T04:08:54.729Z,2.17
2018-12-14T04:11:37.544Z,1.80
2018-12-14T04:14:20.331Z,1.10
2018-12-14T04:17:02.897Z,1.13
2018-12-14T04:19:45.522Z,1.10
2018-12-14T04:22:28.304Z,1.60
2018-12-14T04:25:11.316Z,1.43
2018-12-14T04:27:54.227Z,1.30
2018-12-14T04:30:37.233Z,1.77
2018-12-14T04:33:20.075Z,2.10
2018-12-14T04:36:03.326Z,2.23
2018-12-14T04:38:46.027Z,2.40
2018-12-14T04:41:28.856Z,2.67
2018-12-14T04:44:11.873Z,2.60
2018-12-14T04:46:54.052Z,3.73
2018-12-14T04:49:36.922Z,3.37
2018-12-14T04:52:19.381Z,3.87
2018-12-14T04:55:02.329Z,4.33
2018-12-14T04:57:44.858Z,4.80
2018-12-14T05:00:27.550Z,4.53
2018-12-14T05:03:10.187Z,4.10
2018-12-14T05:05:52.996Z,4.50
2018-12-14T05:08:36.569Z,4.77
2018-12-14T05:11:19.571Z,4.60
2018-12-14T05:14:03.198Z,4.37
2018-12-14T05:16:45.822Z,5.33
2018-12-14T05:19:28.544Z,4.50
2018-12-14T05:22:11.436Z,4.80
2018-12-14T05:24:54.215Z,4.60
2018-12-14T05:27:36.764Z,4.20
2018-12-14T05:30:19.696Z,4.30
2018-12-14T05:33:02.196Z,4.60
2018-12-14T05:35:45.036Z,3.57
2018-12-14T05:38:28.164Z,4.30
2018-12-14T05:41:10.357Z,3.00
2018-12-14T05:43:53.004Z,3.53
2018-12-14T05:46:35.624Z,3.57
2018-12-14T05:49:18.313Z,3.60
2018-12-14T05:52:00.851Z,3.80
2018-12-14T05:54:43.704Z,3.47
2018-12-14T05:57:26.331Z,3.63
2018-12-14T06:00:11.508Z,3.03
2018-12-14T06:02:54.096Z,3.47
2018-12-14T06:05:36.482Z,3.53
2018-12-14T06:08:19.323Z,2.30
2018-12-14T06:11:01.896Z,2.97
2018-12-14T06:13:45.321Z,3.00
2018-12-14T06:16:28.322Z,4.37
2018-12-14T06:19:11.019Z,2.53
2018-12-14T06:21:53.583Z,2.70
2018-12-14T06:24:36.542Z,2.77
2018-12-14T06:27:18.894Z,2.93
2018-12-14T06:30:01.886Z,3.03
2018-12-14T06:32:44.782Z,4.67
2018-12-14T06:35:27.065Z,3.60
2018-12-14T06:38:09.690Z,3.90
2018-12-14T06:40:52.745Z,3.47
2018-12-14T06:43:34.872Z,4.30
2018-12-14T06:46:17.491Z,2.73
2018-12-14T06:49:00.518Z,2.63
2018-12-14T06:51:43.071Z,2.70
2018-12-14T06:54:26.295Z,2.77
2018-12-14T06:57:08.450Z,2.60
2018-12-14T06:59:51.164Z,2.50
2018-12-14T07:02:33.896Z,2.93
2018-12-14T07:05:16.699Z,2.30
2018-12-14T07:07:59.129Z,2.17
2018-12-14T07:10:41.761Z,1.90
2018-12-14T07:13:24.497Z,2.27
2018-12-14T07:16:07.356Z,1.90
2018-12-14T07:18:50.114Z,3.93
2018-12-14T07:21:32.977Z,3.30
2018-12-14T07:24:15.969Z,3.00
2018-12-14T07:26:59.430Z,2.53
2018-12-14T07:29:41.934Z,2.80
2018-12-14T07:32:24.374Z,1.90
2018-12-14T07:35:07.074Z,2.03
2018-12-14T07:37:49.773Z,2.60
2018-12-14T07:40:32.466Z,1.80
2018-12-14T07:43:15.030Z,2.80
2018-12-14T07:45:57.880Z,2.50
2018-12-14T07:48:40.509Z,4.00
2018-12-14T07:51:24.979Z,6.10
2018-12-14T07:54:07.786Z,3.70
2018-12-14T07:56:51.656Z,4.47
2018-12-14T07:59:33.794Z,3.90
2018-12-14T08:02:16.689Z,3.47
2018-12-14T08:04:59.450Z,3.30
2018-12-14T08:07:42.353Z,7.00
2018-12-14T08:10:25.119Z,2.60
2018-12-14T08:13:07.565Z,3.90
2018-12-14T08:15:50.109Z,3.03
2018-12-14T08:18:32.913Z,4.17
2018-12-14T08:21:15.686Z,5.43
2018-12-14T08:23:58.176Z,4.83
2018-12-14T08:26:40.933Z,5.57
2018-12-14T08:29:23.620Z,6.70
2018-12-14T08:32:06.570Z,4.20
2018-12-14T08:34:51.224Z,5.00
2018-12-14T08:37:33.588Z,4.93
2018-12-14T08:40:16.256Z,8.27
2018-12-14T08:42:59.101Z,9.30
2018-12-14T08:45:41.752Z,6.10
2018-12-14T08:48:24.597Z,6.30
2018-12-14T08:51:06.981Z,5.47
2018-12-14T08:53:49.850Z,5.07
2018-12-14T08:56:32.341Z,4.63
2018-12-14T08:59:15.007Z,3.63
2018-12-14T09:01:57.535Z,3.23
2018-12-14T09:04:40.271Z,1.80
2018-12-14T09:07:24.652Z,4.30
2018-12-14T09:10:07.905Z,6.33
2018-12-14T09:12:50.509Z,7.80
2018-12-14T09:15:32.990Z,4.33
2018-12-14T09:18:17.052Z,5.00
2018-12-14T09:21:01.191Z,6.27
2018-12-14T09:23:44.139Z,5.40
2018-12-14T09:26:26.760Z,4.10
2018-12-14T09:29:09.676Z,4.10
2018-12-14T09:31:52.255Z,4.93
2018-12-14T09:34:35.014Z,5.17
2018-12-14T09:37:17.835Z,5.30
2018-12-14T09:40:00.341Z,4.13
2018-12-14T09:42:43.198Z,4.67
2018-12-14T09:45:25.791Z,5.07
2018-12-14T09:48:08.509Z,3.03
2018-12-14T09:50:51.035Z,2.70
2018-12-14T09:53:33.689Z,4.57
2018-12-14T09:56:16.458Z,3.63
2018-12-14T09:58:58.966Z,5.50
2018-12-14T10:01:41.531Z,4.20
2018-12-14T10:04:24.067Z,5.27
2018-12-14T10:07:06.884Z,4.33
2018-12-14T10:09:49.468Z,4.30
2018-12-14T10:12:32.006Z,4.67
2018-12-14T10:15:14.569Z,4.27
2018-12-14T10:17:57.282Z,4.50
2018-12-14T10:20:39.868Z,4.50
2018-12-14T10:23:22.533Z,4.93
2018-12-14T10:26:04.988Z,4.37
2018-12-14T10:28:47.837Z,4.53
2018-12-14T10:31:30.419Z,4.80
2018-12-14T10:34:13.321Z,4.33
2018-12-14T10:36:55.689Z,4.20
2018-12-14T10:39:38.687Z,4.50
2018-12-14T10:42:21.425Z,4.53
2018-12-14T10:45:04.312Z,6.63
2018-12-14T10:47:47.009Z,6.27
2018-12-14T10:50:35.724Z,6.33
2018-12-14T10:53:13.785Z,6.37
2018-12-14T10:55:56.512Z,6.63
2018-12-14T10:58:39.029Z,6.50
2018-12-14T11:01:26.859Z,8.97
2018-12-14T11:04:09.408Z,6.90
2018-12-14T11:06:51.929Z,6.70
2018-12-14T11:09:34.599Z,6.00
2018-12-14T11:12:17.588Z,8.73
2018-12-14T11:15:00.671Z,6.73
2018-12-14T11:17:42.777Z,5.27
2018-12-14T11:20:25.636Z,5.40
2018-12-14T11:23:08.034Z,6.70
2018-12-14T11:25:50.790Z,6.73
2018-12-14T11:28:33.550Z,7.80
2018-12-14T11:31:16.385Z,6.73
2018-12-14T11:33:59.220Z,6.60
2018-12-14T11:36:41.817Z,5.77
2018-12-14T11:39:24.602Z,6.57
2018-12-14T11:42:07.434Z,8.27
2018-12-14T11:44:50.289Z,6.20
2018-12-14T11:47:32.854Z,5.67
2018-12-14T11:50:15.721Z,6.23
2018-12-14T11:52:58.195Z,6.43
2018-12-14T11:55:40.665Z,6.80
2018-12-14T11:58:23.468Z,6.30
2018-12-14T12:01:06.006Z,7.13
2018-12-14T12:03:48.783Z,7.43
2018-12-14T12:06:32.124Z,6.37
2018-12-14T12:09:15.299Z,6.57
2018-12-14T12:11:57.909Z,5.90
2018-12-14T12:14:40.498Z,6.63
2018-12-14T12:17:23.045Z,6.83
2018-12-14T12:20:06.320Z,6.43
2018-12-14T12:22:49.322Z,6.60
2018-12-14T12:25:32.068Z,5.70
2018-12-14T12:28:14.673Z,7.57
2018-12-14T12:30:57.368Z,6.13
2018-12-14T12:33:40.141Z,6.93
2018-12-14T12:36:22.812Z,7.00
2018-12-14T12:39:07.117Z,7.50
2018-12-14T12:41:49.249Z,7.93
2018-12-14T12:44:33.635Z,6.80
2018-12-14T12:47:16.618Z,6.10
2018-12-14T12:49:59.317Z,6.20
2018-12-14T12:52:42.527Z,7.87
2018-12-14T12:55:24.666Z,6.30
2018-12-14T12:58:07.416Z,7.77
2018-12-14T13:00:50.072Z,6.70
2018-12-14T13:03:32.829Z,9.30
2018-12-14T13:06:15.424Z,7.50
2018-12-14T13:08:58.204Z,8.17
2018-12-14T13:11:40.711Z,8.03
2018-12-14T13:14:23.603Z,8.30
2018-12-14T13:17:06.349Z,7.47
2018-12-14T13:19:48.996Z,7.43
2018-12-14T13:22:31.805Z,8.13
2018-12-14T13:25:15.168Z,8.50
2018-12-14T13:27:58.155Z,9.27
2018-12-14T13:30:41.289Z,7.20
2018-12-14T13:33:23.833Z,7.47
2018-12-14T13:36:06.250Z,7.97
2018-12-14T13:38:49.289Z,6.73
2018-12-14T13:41:31.644Z,6.53
2018-12-14T13:44:14.713Z,6.83
2018-12-14T13:46:57.646Z,7.10
2018-12-14T13:49:39.945Z,7.90
2018-12-14T13:52:23.210Z,5.77
2018-12-14T13:55:06.168Z,6.17
2018-12-14T13:57:48.938Z,6.40
2018-12-14T14:00:31.641Z,6.23
2018-12-14T14:03:14.740Z,6.50
2018-12-14T14:05:56.745Z,6.13
2018-12-14T14:08:39.652Z,8.67
2018-12-14T14:11:22.383Z,6.10
2018-12-14T14:14:05.366Z,5.20
2018-12-14T14:16:49.184Z,5.70
2018-12-14T14:19:32.095Z,5.50
2018-12-14T14:22:14.703Z,6.77
2018-12-14T14:24:56.837Z,5.90
2018-12-14T14:27:39.405Z,5.20
2018-12-14T14:30:22.194Z,5.30
2018-12-14T14:33:06.111Z,5.20
2018-12-14T14:35:48.586Z,4.90
2018-12-14T14:38:31.208Z,5.97
2018-12-14T14:41:14.041Z,6.93
2018-12-14T14:43:56.842Z,5.53
2018-12-14T14:46:39.238Z,7.60
2018-12-14T14:49:21.828Z,5.87
2018-12-14T14:52:04.343Z,8.17
2018-12-14T14:54:47.294Z,7.10
2018-12-14T14:57:30.167Z,6.30
2018-12-14T15:00:12.710Z,6.70
2018-12-14T15:02:55.838Z,6.90
2018-12-14T15:05:38.797Z,7.23
2018-12-14T15:08:21.610Z,7.77
2018-12-14T15:11:04.931Z,8.03
2018-12-14T15:13:47.357Z,6.80
2018-12-14T15:16:30.013Z,5.70
2018-12-14T15:19:12.702Z,6.73
2018-12-14T15:21:55.261Z,9.03
2018-12-14T15:24:37.934Z,6.93
2018-12-14T15:27:20.632Z,6.83
2018-12-14T15:30:03.206Z,6.27
2018-12-14T15:32:45.702Z,7.80
2018-12-14T15:35:28.275Z,6.63
2018-12-14T15:38:12.134Z,5.80
2018-12-14T15:40:54.655Z,8.23
2018-12-14T15:43:38.069Z,6.30
2018-12-14T15:46:20.217Z,7.40
2018-12-14T15:49:03.000Z,7.10
2018-12-14T15:51:45.714Z,5.20
2018-12-14T15:54:28.237Z,6.17
2018-12-14T15:57:10.923Z,6.90
2018-12-14T15:59:53.722Z,9.40
2018-12-14T16:02:36.490Z,6.73
2018-12-14T16:05:20.040Z,6.00
2018-12-14T16:08:02.858Z,6.30
2018-12-14T16:10:45.353Z,8.80
2018-12-14T16:13:28.180Z,5.77
2018-12-14T16:16:11.144Z,8.60
2018-12-14T16:18:53.387Z,5.83
2018-12-14T16:21:36.183Z,6.20
2018-12-14T16:24:19.314Z,4.70
2018-12-14T16:27:01.430Z,6.30
2018-12-14T16:29:44.169Z,5.83
2018-12-14T16:32:26.985Z,5.03
2018-12-14T16:35:09.683Z,4.30
2018-12-14T16:37:52.213Z,5.00
2018-12-14T16:40:35.066Z,6.30
2018-12-14T16:43:18.517Z,6.53
2018-12-14T16:46:01.429Z,6.00
2018-12-14T16:48:44.775Z,5.67
2018-12-14T16:51:27.430Z,4.50
2018-12-14T16:54:09.701Z,6.33
2018-12-14T16:56:52.325Z,5.70
2018-12-14T16:59:35.588Z,5.90
2018-12-14T17:02:17.886Z,5.47
2018-12-14T17:05:00.894Z,5.30
2018-12-14T17:07:43.506Z,5.03
2018-12-14T17:10:26.177Z,5.30
2018-12-14T17:13:09.477Z,4.40
2018-12-14T17:15:51.630Z,4.20
2018-12-14T17:18:34.472Z,5.50
2018-12-14T17:21:17.120Z,4.20
2018-12-14T17:23:59.470Z,3.87
2018-12-14T17:26:42.898Z,4.10
2018-12-14T17:29:25.664Z,4.00
2018-12-14T17:32:07.630Z,4.53
2018-12-14T17:34:50.394Z,3.87
2018-12-14T17:37:32.941Z,4.07
2018-12-14T17:40:15.814Z,4.73
2018-12-14T17:42:59.211Z,4.80
2018-12-14T17:45:42.944Z,4.20
2018-12-14T17:48:25.825Z,3.70
2018-12-14T17:51:08.635Z,4.17
2018-12-14T17:53:52.029Z,4.33
2018-12-14T17:56:35.050Z,3.60
2018-12-14T17:59:17.499Z,4.10
2018-12-14T18:02:00.275Z,4.67
2018-12-14T18:04:43.036Z,4.47
2018-12-14T18:07:26.025Z,4.30
2018-12-14T18:10:08.869Z,4.93
2018-12-14T18:12:51.335Z,5.27
2018-12-14T18:15:33.969Z,3.87
2018-12-14T18:18:16.608Z,4.10
2018-12-14T18:21:00.013Z,6.30
2018-12-14T18:23:45.109Z,5.40
2018-12-14T18:26:27.902Z,5.53
2018-12-14T18:29:10.360Z,4.67
2018-12-14T18:31:53.369Z,7.10
2018-12-14T18:34:35.921Z,4.23
2018-12-14T18:37:18.885Z,4.37
2018-12-14T18:40:01.249Z,3.30
2018-12-14T18:42:44.291Z,3.13
2018-12-14T18:45:27.356Z,3.40
2018-12-14T18:48:10.512Z,3.73
2018-12-14T18:50:52.974Z,3.73
2018-12-14T18:53:35.925Z,2.87
2018-12-14T18:56:19.522Z,3.20
2018-12-14T18:59:03.038Z,3.20
2018-12-14T19:01:45.491Z,3.03
2018-12-14T19:04:29.686Z,3.10
2018-12-14T19:07:13.454Z,2.70
2018-12-14T19:09:55.843Z,2.17
2018-12-14T19:12:38.537Z,2.67
2018-12-14T19:15:21.978Z,3.83
2018-12-14T19:18:04.874Z,3.13
2018-12-14T19:20:52.669Z,2.73
2018-12-14T19:23:36.036Z,2.33
2018-12-14T19:26:21.602Z,2.73
2018-12-14T19:29:06.034Z,2.73
2018-12-14T19:31:49.046Z,2.70
2018-12-14T19:34:32.608Z,2.90
2018-12-14T19:37:15.329Z,2.27
2018-12-14T19:39:58.429Z,2.77
2018-12-14T19:42:41.138Z,3.37
2018-12-14T19:45:24.838Z,4.00
2018-12-14T19:48:08.061Z,3.50
2018-12-14T19:50:52.311Z,3.03
2018-12-14T19:53:35.467Z,2.37
2018-12-14T19:56:19.082Z,1.80
2018-12-14T19:59:03.764Z,2.43
2018-12-14T20:01:46.294Z,2.73
2018-12-14T20:04:30.294Z,2.40
2018-12-14T20:07:13.541Z,1.73
2018-12-14T20:09:56.786Z,2.33
2018-12-14T20:12:39.202Z,2.70
2018-12-14T20:15:22.785Z,5.53
2018-12-14T20:18:05.393Z,2.53
2018-12-14T20:20:48.405Z,2.80
2018-12-14T20:23:32.774Z,3.60
2018-12-14T20:26:15.986Z,5.40
2018-12-14T20:29:00.658Z,3.00
2018-12-14T20:31:44.513Z,2.97
2018-12-14T20:34:27.168Z,2.20
2018-12-14T20:37:10.057Z,3.00
2018-12-14T20:39:52.323Z,5.90
2018-12-14T20:42:36.555Z,5.03
2018-12-14T20:45:19.565Z,1.83
2018-12-14T20:48:02.941Z,2.20
2018-12-14T20:50:45.991Z,2.47
2018-12-14T20:53:28.890Z,2.13
2018-12-14T20:56:11.707Z,1.90
2018-12-14T20:58:55.037Z,1.70
2018-12-14T21:01:39.019Z,2.80
2018-12-14T21:04:21.876Z,3.00
2018-12-14T21:07:04.719Z,2.20
2018-12-14T21:09:46.970Z,3.17
2018-12-14T21:12:29.708Z,2.20
2018-12-14T21:15:12.464Z,2.10
2018-12-14T21:17:55.278Z,3.10
2018-12-14T21:20:38.595Z,1.83
2018-12-14T21:23:21.775Z,2.10
2018-12-14T21:26:04.098Z,4.17
2018-12-14T21:28:48.333Z,2.97
2018-12-14T21:31:30.541Z,3.67
2018-12-14T21:34:13.770Z,2.37
2018-12-14T21:36:57.074Z,2.23
2018-12-14T21:39:39.545Z,4.17
2018-12-14T21:42:22.326Z,2.97
2018-12-14T21:45:05.398Z,2.97
2018-12-14T21:47:47.725Z,1.80
2018-12-14T21:50:31.229Z,1.57
2018-12-14T21:53:14.644Z,1.67
2018-12-14T21:55:57.801Z,1.77
2018-12-14T21:58:42.191Z,1.50
2018-12-14T22:01:25.717Z,3.87
2018-12-14T22:04:09.789Z,1.83
2018-12-14T22:06:53.712Z,1.57
2018-12-14T22:09:36.194Z,2.50
2018-12-14T22:12:18.856Z,2.80
2018-12-14T22:15:01.514Z,1.50
2018-12-14T22:17:44.034Z,1.57
2018-12-14T22:20:26.729Z,2.23
2018-12-14T22:23:09.472Z,1.50
2018-12-14T22:25:52.130Z,1.73
2018-12-14T22:28:35.046Z,1.60
2018-12-14T22:31:17.716Z,1.90
2018-12-14T22:34:00.249Z,1.90
2018-12-14T22:36:42.743Z,3.33
2018-12-14T22:39:26.312Z,3.20
2018-12-14T22:42:09.113Z,4.63
2018-12-14T22:44:52.089Z,1.57
2018-12-14T22:47:35.687Z,1.40
2018-12-14T22:50:18.352Z,1.30
2018-12-14T22:53:05.799Z,1.57
2018-12-14T22:55:49.294Z,1.30
2018-12-14T22:58:32.366Z,1.23
2018-12-14T23:01:15.260Z,1.10
2018-12-14T23:03:58.630Z,1.20
2018-12-14T23:06:41.553Z,1.20
2018-12-14T23:09:24.318Z,1.37
2018-12-14T23:12:06.958Z,1.10
2018-12-14T23:14:49.513Z,1.10
2018-12-14T23:17:32.265Z,1.70
2018-12-14T23:20:15.124Z,1.07
2018-12-14T23:22:57.801Z,1.10
2018-12-14T23:25:40.613Z,1.30
2018-12-14T23:28:23.925Z,1.00
2018-12-14T23:31:07.357Z,1.10
2018-12-14T23:33:49.706Z,1.30
2018-12-14T23:36:32.214Z,1.30
2018-12-14T23:39:15.251Z,1.30
2018-12-14T23:41:57.652Z,1.30
2018-12-14T23:44:40.729Z,1.20
2018-12-14T23:47:23.348Z,1.20
2018-12-14T23:50:05.709Z,1.40
2018-12-14T23:52:49.068Z,1.23
2018-12-14T23:55:32.335Z,1.00
2018-12-14T23:58:14.616Z,1.20
